createdAt,value
2022-12-18T00:04:38.089Z,90.21
2022-12-18T00:09:40.641Z,89.97
2022-12-18T00:14:43.207Z,90.98
2022-12-18T00:19:44.774Z,91.08
2022-12-18T00:24:46.483Z,90.58
2022-12-18T00:29:49.322Z,90.66
2022-12-18T00:34:51.016Z,90.53
2022-12-18T00:39:52.710Z,89.70
2022-12-18T00:44:55.193Z,89.34
2022-12-18T00:49:56.770Z,89.42
2022-12-18T00:55:03.059Z,89.48
2022-12-18T01:00:10.204Z,90.78
2022-12-18T01:05:16.514Z,90.56
2022-12-18T01:10:18.640Z,90.96
2022-12-18T01:15:21.408Z,91.13
2022-12-18T01:20:23.341Z,91.20
2022-12-18T01:25:24.998Z,91.15
2022-12-18T01:30:26.565Z,91.11
2022-12-18T01:35:28.312Z,90.83
2022-12-18T01:40:30.429Z,90.41
2022-12-18T01:45:32.941Z,89.90
2022-12-18T01:50:40.862Z,89.98
2022-12-18T01:55:52.931Z,90.26
2022-12-18T02:00:56.732Z,90.47
2022-12-18T02:06:05.912Z,90.50
2022-12-18T02:11:35.892Z,90.43
2022-12-18T02:17:02.053Z,90.78
2022-12-18T02:22:25.475Z,91.49
2022-12-18T02:27:28.977Z,91.82
2022-12-18T02:32:38.577Z,91.15
2022-12-18T02:37:42.917Z,91.19
2022-12-18T02:42:45.348Z,91.34
2022-12-18T02:47:51.413Z,91.18
2022-12-18T02:53:18.014Z,91.49
2022-12-18T02:58:26.023Z,91.39
2022-12-18T03:03:39.888Z,91.84
2022-12-18T03:08:50.585Z,91.99
2022-12-18T03:13:59.247Z,91.96
2022-12-18T03:19:13.576Z,91.81
2022-12-18T03:24:20.154Z,91.44
2022-12-18T03:29:28.152Z,91.36
2022-12-18T03:34:33.563Z,91.40
2022-12-18T03:39:38.555Z,91.37
2022-12-18T03:45:02.953Z,91.51
2022-12-18T03:50:12.810Z,91.10
2022-12-18T03:55:18.652Z,91.03
2022-12-18T04:00:23.053Z,91.40
2022-12-18T04:05:39.860Z,90.88
2022-12-18T04:10:42.821Z,91.29
2022-12-18T04:15:44.753Z,91.63
2022-12-18T04:20:50.135Z,91.30
2022-12-18T04:25:53.279Z,90.88
2022-12-18T04:31:10.857Z,91.06
2022-12-18T04:36:13.439Z,91.38
2022-12-18T04:41:16.042Z,91.67
2022-12-18T04:46:20.553Z,91.25
2022-12-18T04:51:26.344Z,91.27
2022-12-18T04:56:28.499Z,90.77
2022-12-18T05:01:34.596Z,91.89
2022-12-18T05:06:36.756Z,91.70
2022-12-18T05:11:38.521Z,91.05
2022-12-18T05:16:40.198Z,91.41
2022-12-18T05:21:42.171Z,91.48
2022-12-18T05:26:44.402Z,91.04
2022-12-18T05:31:46.112Z,91.17
2022-12-18T05:36:47.798Z,91.51
2022-12-18T05:41:49.456Z,91.16
2022-12-18T05:46:51.127Z,91.13
2022-12-18T05:51:52.976Z,91.07
2022-12-18T05:56:54.913Z,90.98
2022-12-18T06:01:56.577Z,90.97
2022-12-18T06:06:58.624Z,90.48
2022-12-18T06:12:00.252Z,90.70
2022-12-18T06:17:02.303Z,90.53
2022-12-18T06:22:03.921Z,90.34
2022-12-18T06:27:05.508Z,90.45
2022-12-18T06:32:07.185Z,91.05
2022-12-18T06:37:09.043Z,91.36
2022-12-18T06:42:10.810Z,91.00
2022-12-18T06:47:12.422Z,91.39
2022-12-18T06:52:14.198Z,91.16
2022-12-18T06:57:16.129Z,90.90
2022-12-18T07:02:18.612Z,91.57
2022-12-18T07:07:20.531Z,91.93
2022-12-18T07:12:22.130Z,92.32
2022-12-18T07:17:23.818Z,91.89
2022-12-18T07:22:27.104Z,92.62
2022-12-18T07:27:28.697Z,93.19
2022-12-18T07:32:31.526Z,92.98
2022-12-18T07:37:33.259Z,94.10
2022-12-18T07:42:35.796Z,94.01
2022-12-18T07:47:37.654Z,93.78
2022-12-18T07:52:39.310Z,93.72
2022-12-18T07:57:50.701Z,93.11
2022-12-18T08:02:54.334Z,93.19
2022-12-18T08:07:56.992Z,93.65
2022-12-18T08:13:04.463Z,93.22
2022-12-18T08:18:10.102Z,92.91
2022-12-18T08:23:14.319Z,93.24
2022-12-18T08:28:15.911Z,92.80
2022-12-18T08:33:17.580Z,92.39
2022-12-18T08:38:19.267Z,92.35
2022-12-18T08:43:40.645Z,92.52
2022-12-18T08:48:42.673Z,93.21
2022-12-18T08:53:45.481Z,93.06
2022-12-18T08:58:47.615Z,92.38
2022-12-18T09:03:50.728Z,92.34
2022-12-18T09:08:52.380Z,92.25
2022-12-18T09:13:55.121Z,91.90
2022-12-18T09:19:00.529Z,91.59
2022-12-18T09:24:02.240Z,91.36
2022-12-18T09:29:04.916Z,90.72
2022-12-18T09:34:06.993Z,91.40
2022-12-18T09:39:09.132Z,91.50
2022-12-18T09:44:13.746Z,90.81
2022-12-18T09:49:19.173Z,90.61
2022-12-18T09:54:32.279Z,91.21
2022-12-18T09:59:40.691Z,91.27
2022-12-18T10:04:43.068Z,90.86
2022-12-18T10:10:02.067Z,89.97
2022-12-18T10:15:15.900Z,90.16
2022-12-18T10:20:30.911Z,89.80
2022-12-18T10:25:42.607Z,90.02
2022-12-18T10:30:45.005Z,89.43
2022-12-18T10:35:49.010Z,88.59
2022-12-18T10:41:03.891Z,88.46
2022-12-18T10:46:08.693Z,88.46
2022-12-18T10:51:13.127Z,87.71
2022-12-18T10:56:21.675Z,87.53
2022-12-18T11:01:23.650Z,87.58
2022-12-18T11:06:26.646Z,87.81
2022-12-18T11:11:29.372Z,87.54
2022-12-18T11:16:36.078Z,87.04
2022-12-18T11:21:42.644Z,86.63
2022-12-18T11:26:44.398Z,86.45
2022-12-18T11:31:46.448Z,86.11
2022-12-18T11:36:49.525Z,85.95
2022-12-18T11:42:12.403Z,85.68
2022-12-18T11:47:29.352Z,85.43
2022-12-18T11:52:40.043Z,84.86
2022-12-18T11:58:39.219Z,85.14
2022-12-18T12:03:50.896Z,84.71
2022-12-18T12:09:11.787Z,84.80
2022-12-18T12:14:31.124Z,84.81
2022-12-18T12:19:54.934Z,84.78
2022-12-18T12:25:21.224Z,84.62
2022-12-18T12:30:40.436Z,84.76
2022-12-18T12:35:47.924Z,84.92
2022-12-18T12:41:04.021Z,84.22
2022-12-18T12:46:08.350Z,85.73
2022-12-18T12:51:38.083Z,85.54
2022-12-18T12:57:04.351Z,86.28
2022-12-18T13:02:24.121Z,86.68
2022-12-18T13:07:33.555Z,87.06
2022-12-18T13:12:53.417Z,88.14
2022-12-18T13:18:10.264Z,89.00
2022-12-18T13:23:28.699Z,88.20
2022-12-18T13:28:34.174Z,89.01
2022-12-18T13:33:35.920Z,89.03
2022-12-18T13:38:39.747Z,88.42
2022-12-18T13:43:47.592Z,90.53
2022-12-18T13:48:53.180Z,89.79
2022-12-18T13:54:01.070Z,90.44
2022-12-18T13:59:14.838Z,91.16
2022-12-18T14:04:24.612Z,90.90
2022-12-18T14:09:30.048Z,91.26
2022-12-18T14:14:33.797Z,91.36
2022-12-18T14:19:36.886Z,91.64
2022-12-18T14:24:38.521Z,91.13
2022-12-18T14:29:44.067Z,91.20
2022-12-18T14:34:56.247Z,92.51
2022-12-18T14:40:03.148Z,92.61
2022-12-18T14:45:41.589Z,92.65
2022-12-18T14:50:45.157Z,91.53
2022-12-18T14:55:48.895Z,91.17
2022-12-18T15:00:51.304Z,91.13
2022-12-18T15:05:52.945Z,91.25
2022-12-18T15:10:54.786Z,91.23
2022-12-18T15:16:02.394Z,92.00
2022-12-18T15:21:12.341Z,93.29
2022-12-18T15:26:16.562Z,93.11
2022-12-18T15:31:18.330Z,92.34
2022-12-18T15:36:26.367Z,92.36
2022-12-18T15:41:34.502Z,92.15
2022-12-18T15:46:37.996Z,91.87
2022-12-18T15:51:40.895Z,91.76
2022-12-18T15:57:01.546Z,91.08
2022-12-18T16:02:03.455Z,90.88
2022-12-18T16:07:14.861Z,90.79
2022-12-18T16:12:23.965Z,90.81
2022-12-18T16:17:25.681Z,91.13
2022-12-18T16:22:30.032Z,91.42
2022-12-18T16:27:31.947Z,91.40
2022-12-18T16:32:33.967Z,90.91
2022-12-18T16:37:35.963Z,91.34
2022-12-18T16:42:38.856Z,91.74
2022-12-18T16:47:42.125Z,91.34
2022-12-18T16:52:45.209Z,91.42
2022-12-18T16:57:46.882Z,91.58
2022-12-18T17:02:51.076Z,91.67
2022-12-18T17:07:52.901Z,91.99
2022-12-18T17:12:56.355Z,91.99
2022-12-18T17:18:05.707Z,91.71
2022-12-18T17:23:09.490Z,91.95
2022-12-18T17:28:12.589Z,92.09
2022-12-18T17:33:14.537Z,92.15
2022-12-18T17:38:18.193Z,92.19
2022-12-18T17:43:20.666Z,92.42
2022-12-18T17:48:25.597Z,92.32
2022-12-18T17:53:30.191Z,92.70
2022-12-18T17:58:33.577Z,92.50
2022-12-18T18:03:38.133Z,93.02
2022-12-18T18:08:40.061Z,93.43
2022-12-18T18:14:08.231Z,93.51
2022-12-18T18:19:16.712Z,93.42
2022-12-18T18:24:20.847Z,93.34
2022-12-18T18:29:26.970Z,93.30
2022-12-18T18:34:32.504Z,93.04
2022-12-18T18:39:34.807Z,92.77
2022-12-18T18:44:36.797Z,92.71
2022-12-18T18:49:38.719Z,92.78
2022-12-18T18:54:57.107Z,92.90
2022-12-18T19:00:04.172Z,92.77
2022-12-18T19:05:05.990Z,92.95
2022-12-18T19:10:08.581Z,92.81
2022-12-18T19:15:10.336Z,92.90
2022-12-18T19:20:12.073Z,93.11
2022-12-18T19:25:15.086Z,93.09
2022-12-18T19:30:17.006Z,93.28
2022-12-18T19:35:18.636Z,92.98
2022-12-18T19:40:20.390Z,92.45
2022-12-18T19:45:22.048Z,93.24
2022-12-18T19:50:25.530Z,92.88
2022-12-18T19:55:27.565Z,93.05
2022-12-18T20:00:29.180Z,93.13
2022-12-18T20:05:31.137Z,93.18
2022-12-18T20:10:33.082Z,93.04
2022-12-18T20:15:34.679Z,92.90
2022-12-18T20:20:38.922Z,92.91
2022-12-18T20:25:41.930Z,92.38
2022-12-18T20:30:43.656Z,92.82
2022-12-18T20:35:45.362Z,92.64
2022-12-18T20:40:47.861Z,92.91
2022-12-18T20:45:49.521Z,92.96
2022-12-18T20:51:03.802Z,92.86
2022-12-18T20:56:13.763Z,92.77
2022-12-18T21:01:21.149Z,92.87
2022-12-18T21:06:24.484Z,93.14
2022-12-18T21:11:47.389Z,92.97
2022-12-18T21:16:50.014Z,93.10
2022-12-18T21:21:52.782Z,92.95
2022-12-18T21:26:54.641Z,92.91
2022-12-18T21:31:56.929Z,92.82
2022-12-18T21:37:00.363Z,93.17
2022-12-18T21:42:20.505Z,93.03
2022-12-18T21:47:23.481Z,93.05
2022-12-18T21:52:32.372Z,93.38
2022-12-18T21:57:34.357Z,93.52
2022-12-18T22:02:36.135Z,93.79
2022-12-18T22:07:38.329Z,93.79
2022-12-18T22:12:43.719Z,94.02
2022-12-18T22:17:46.921Z,94.18
2022-12-18T22:22:50.396Z,93.91
2022-12-18T22:28:10.917Z,93.74
2022-12-18T22:33:12.888Z,93.77
2022-12-18T22:38:14.530Z,94.10
2022-12-18T22:43:16.336Z,94.41
2022-12-18T22:48:18.164Z,94.52
2022-12-18T22:53:20.920Z,94.47
2022-12-18T22:58:22.564Z,94.71
2022-12-18T23:03:24.177Z,94.20
2022-12-18T23:08:25.873Z,94.21
2022-12-18T23:13:30.154Z,94.16
2022-12-18T23:18:31.895Z,93.93
2022-12-18T23:23:37.085Z,94.22
2022-12-18T23:28:39.538Z,94.08
2022-12-18T23:33:41.568Z,94.08
2022-12-18T23:38:47.719Z,94.06
2022-12-18T23:43:49.862Z,93.81
2022-12-18T23:48:51.965Z,94.09
2022-12-18T23:53:56.363Z,94.14
2022-12-18T23:58:58.069Z,94.41
